Boston College, Massachusetts
Current Conditions -  °F | °C
As of 1:54 PM on Wednesday 26 Nov 2014 (Local Time) from KBOS Reporting Station
Ice Pellets Ice Pellets  
Wind Chill: 27°   Ceiling: 1200
Heat Index: 38°   Visibility: 1.5mi
Dew Point: 36°   Wind: 22mph
Humidity: 93%   Direction: 30°NNE
Pressure: 30.04"   Gusts: 25mph
Location:  42.3163°N, 71.1603°W
Report Text: KBOS 261854Z 03019G22KT 1 1/2SM R04R/6000VP6000FT PLRA BR OVC012 03/02 A3004 RMK AO2 TWR VIS 2 PLB48 SLP173 P0017 T00330022
Loading
Personal Weather Stations






























Interactive Weather Map New forecast layout! Learn more

10-Day Weather Forecast

Advertisements
Track Severe Weather on mobile